Time;durP1;ratioP1;P1;durP2;ratioP2;P2;SDS_P1;SDS_P2;PMS_P1;PMS_P2;Temp;Humidity;BMP_temperature;BMP_pressure;BME280_temperature;BME280_humidity;BME280_pressure;Samples;Min_cycle;Max_cycle;Signal;HPM_P1;HPM_P2
2023/12/01 00:00:07;;;;;;;127.53;64.88;;;;;;;;;;5014052;28;20021;-71
2023/12/01 00:02:33;;;;;;;130.70;65.45;;;;;;;;;;5014276;28;20033;-71
2023/12/01 00:04:58;;;;;;;136.50;66.55;;;;;;;;;;5013898;28;20022;-71
2023/12/01 00:07:23;;;;;;;121.10;61.60;;;;;;;;;;5013880;28;20492;-71
2023/12/01 00:09:49;;;;;;;124.25;62.70;;;;;;;;;;5014538;28;20014;-71
2023/12/01 00:12:16;;;;;;;116.20;61.45;;;;;;;;;;4996375;28;20049;-71
2023/12/01 00:14:42;;;;;;;119.28;59.20;;;;;;;;;;5014395;28;20065;-71
2023/12/01 00:17:07;;;;;;;107.75;56.85;;;;;;;;;;5014007;28;20037;-71
2023/12/01 00:19:33;;;;;;;106.15;55.47;;;;;;;;;;5014081;28;20424;-71
2023/12/01 00:21:58;;;;;;;117.93;62.00;;;;;;;;;;5013742;28;20029;-71
2023/12/01 00:24:23;;;;;;;126.22;64.93;;;;;;;;;;5014252;28;20037;-71
2023/12/01 00:26:50;;;;;;;124.65;63.50;;;;;;;;;;5013932;28;20030;-70
2023/12/01 00:29:15;;;;;;;128.52;66.78;;;;;;;;;;4996844;28;20056;-70
2023/12/01 00:31:41;;;;;;;117.18;58.45;;;;;;;;;;4996053;28;20080;-71
2023/12/01 00:34:06;;;;;;;106.30;54.30;;;;;;;;;;4996564;28;20030;-72
2023/12/01 00:36:33;;;;;;;98.68;51.03;;;;;;;;;;5013910;28;20030;-72
2023/12/01 00:38:58;;;;;;;98.30;51.13;;;;;;;;;;5013604;28;20029;-74
2023/12/01 00:41:24;;;;;;;98.55;50.60;;;;;;;;;;5013863;28;20038;-70
2023/12/01 00:43:50;;;;;;;99.72;51.17;;;;;;;;;;5013543;28;20117;-72
2023/12/01 00:46:15;;;;;;;96.05;50.22;;;;;;;;;;4996015;28;20087;-71
2023/12/01 00:48:42;;;;;;;100.28;49.45;;;;;;;;;;5013638;28;20030;-71
2023/12/01 00:51:17;;;;;;;112.75;57.33;;;;;;;;;;5012396;28;20038;-71
2023/12/01 00:53:43;;;;;;;112.82;59.63;;;;;;;;;;5013537;28;20128;-71
2023/12/01 00:56:09;;;;;;;93.10;47.80;;;;;;;;;;5013772;28;20101;-71
2023/12/01 00:58:35;;;;;;;93.97;47.03;;;;;;;;;;4996011;28;20053;-71
2023/12/01 01:01:01;;;;;;;124.75;73.50;;;;;;;;;;5013776;28;20018;-71
2023/12/01 01:03:26;;;;;;;103.53;57.13;;;;;;;;;;5015879;28;20396;-71
2023/12/01 01:05:52;;;;;;;97.03;50.83;;;;;;;;;;5015934;28;20491;-71
2023/12/01 01:08:17;;;;;;;81.95;42.42;;;;;;;;;;5017082;28;20032;-71
2023/12/01 01:10:43;;;;;;;81.28;41.33;;;;;;;;;;4967318;28;20480;-70
2023/12/01 01:13:10;;;;;;;77.57;39.75;;;;;;;;;;5016928;28;20022;-71
2023/12/01 01:15:36;;;;;;;81.30;41.70;;;;;;;;;;4999873;28;20383;-70
2023/12/01 01:18:02;;;;;;;81.65;41.75;;;;;;;;;;4982435;28;20072;-70
2023/12/01 01:20:27;;;;;;;74.32;37.15;;;;;;;;;;5017364;28;20460;-70
2023/12/01 01:22:54;;;;;;;85.20;42.05;;;;;;;;;;5016703;28;20018;-70
2023/12/01 01:25:19;;;;;;;87.13;44.30;;;;;;;;;;5015505;28;20373;-70
2023/12/01 01:27:45;;;;;;;98.55;50.55;;;;;;;;;;4983073;28;20084;-69
2023/12/01 01:30:10;;;;;;;103.68;50.30;;;;;;;;;;5017201;28;20426;-69
2023/12/01 01:32:35;;;;;;;93.60;49.65;;;;;;;;;;4999119;28;20040;-69
2023/12/01 01:35:04;;;;;;;95.32;47.53;;;;;;;;;;4999033;28;20062;-69
2023/12/01 01:37:30;;;;;;;91.28;47.35;;;;;;;;;;5016925;28;20535;-69
2023/12/01 01:39:55;;;;;;;90.43;49.10;;;;;;;;;;5016730;28;20113;-69
2023/12/01 01:42:21;;;;;;;98.22;49.08;;;;;;;;;;5015120;28;20030;-69
2023/12/01 01:44:46;;;;;;;99.63;49.10;;;;;;;;;;5016843;28;20112;-69
2023/12/01 01:47:12;;;;;;;99.78;49.83;;;;;;;;;;5016676;28;20041;-72
2023/12/01 01:49:38;;;;;;;102.55;51.83;;;;;;;;;;4995344;28;20042;-71
2023/12/01 01:52:04;;;;;;;98.72;51.92;;;;;;;;;;4995394;28;20022;-70
2023/12/01 01:54:29;;;;;;;105.65;52.55;;;;;;;;;;4996911;28;20392;-70
2023/12/01 01:56:55;;;;;;;101.72;50.88;;;;;;;;;;4979576;28;20034;-70
2023/12/01 01:59:21;;;;;;;97.63;49.33;;;;;;;;;;4995849;28;20047;-70
2023/12/01 02:01:47;;;;;;;94.53;47.92;;;;;;;;;;5011580;28;20081;-70
2023/12/01 02:04:12;;;;;;;88.25;46.67;;;;;;;;;;4995816;28;20046;-70
2023/12/01 02:06:39;;;;;;;89.75;45.45;;;;;;;;;;4978880;28;20019;-70
2023/12/01 02:09:06;;;;;;;88.97;47.17;;;;;;;;;;4994939;28;20396;-70
2023/12/01 02:11:31;;;;;;;85.80;43.88;;;;;;;;;;4996560;28;20027;-70
2023/12/01 02:13:59;;;;;;;83.63;43.53;;;;;;;;;;5011166;28;20129;-72
2023/12/01 02:16:25;;;;;;;92.15;46.17;;;;;;;;;;4995041;28;20101;-72
2023/12/01 02:18:54;;;;;;;85.15;43.28;;;;;;;;;;5011087;28;20057;-72
2023/12/01 02:21:25;;;;;;;87.68;44.72;;;;;;;;;;5017130;23;20400;-66
2023/12/01 02:23:54;;;;;;;83.22;44.50;;;;;;;;;;5015401;28;20484;-71
2023/12/01 02:26:22;;;;;;;83.32;42.67;;;;;;;;;;4982159;28;20056;-68
2023/12/01 02:28:48;;;;;;;88.40;45.25;;;;;;;;;;5015567;28;20026;-71
2023/12/01 02:31:20;;;;;;;91.70;46.63;;;;;;;;;;5015520;28;20353;-71
2023/12/01 02:33:53;;;;;;;98.45;48.85;;;;;;;;;;5015747;28;20037;-71
2023/12/01 02:36:19;;;;;;;89.18;47.22;;;;;;;;;;5015617;28;20038;-71
2023/12/01 02:38:45;;;;;;;93.25;45.90;;;;;;;;;;4998185;28;20041;-71
2023/12/01 02:41:10;;;;;;;90.05;45.03;;;;;;;;;;4981902;28;20030;-71
2023/12/01 02:43:35;;;;;;;96.72;47.60;;;;;;;;;;5015298;28;20029;-71
2023/12/01 02:46:01;;;;;;;106.15;51.40;;;;;;;;;;4997764;28;20048;-71
2023/12/01 02:48:26;;;;;;;206.30;69.70;;;;;;;;;;5015929;28;20085;-71
2023/12/01 02:50:51;;;;;;;188.70;64.72;;;;;;;;;;5015327;28;20029;-71
2023/12/01 02:53:18;;;;;;;180.15;65.50;;;;;;;;;;4998595;28;20092;-71
2023/12/01 02:55:45;;;;;;;142.10;58.42;;;;;;;;;;4997478;28;20112;-66
2023/12/01 02:58:11;;;;;;;109.72;49.53;;;;;;;;;;5015384;28;20414;-66
2023/12/01 03:00:37;;;;;;;124.38;51.60;;;;;;;;;;4981187;28;20113;-67
2023/12/01 03:03:02;;;;;;;131.85;53.17;;;;;;;;;;5014836;28;20081;-67
2023/12/01 03:05:28;;;;;;;133.55;53.90;;;;;;;;;;5015183;28;20050;-66
2023/12/01 03:07:53;;;;;;;108.07;48.40;;;;;;;;;;5015227;28;20037;-65
2023/12/01 03:10:19;;;;;;;91.90;41.92;;;;;;;;;;4998368;28;20453;-65
2023/12/01 03:12:45;;;;;;;85.32;41.47;;;;;;;;;;5014896;28;20080;-66
2023/12/01 03:15:11;;;;;;;79.85;41.50;;;;;;;;;;5015000;28;20029;-66
2023/12/01 03:17:37;;;;;;;85.20;41.80;;;;;;;;;;5013696;28;20030;-67
2023/12/01 03:20:14;;;;;;;77.93;38.78;;;;;;;;;;4997386;28;20129;-64
2023/12/01 03:22:41;;;;;;;68.85;36.33;;;;;;;;;;5013189;28;20041;-66
2023/12/01 03:25:09;;;;;;;67.65;35.35;;;;;;;;;;5013928;28;20040;-67
2023/12/01 03:27:39;;;;;;;71.95;36.28;;;;;;;;;;5014483;28;20029;-67
2023/12/01 03:30:13;;;;;;;83.75;38.67;;;;;;;;;;4997251;28;20026;-68
2023/12/01 03:32:46;;;;;;;89.00;41.28;;;;;;;;;;4980928;28;20113;-67
2023/12/01 03:35:12;;;;;;;80.38;37.75;;;;;;;;;;4980616;28;20036;-68
2023/12/01 03:37:38;;;;;;;77.93;39.35;;;;;;;;;;5013077;28;20041;-67
2023/12/01 03:40:07;;;;;;;85.90;44.20;;;;;;;;;;5014588;28;20026;-69
2023/12/01 03:42:33;;;;;;;110.70;52.22;;;;;;;;;;5014444;28;20109;-69
2023/12/01 03:44:58;;;;;;;114.03;51.92;;;;;;;;;;4996562;28;20117;-69
2023/12/01 03:47:23;;;;;;;122.55;54.97;;;;;;;;;;5012908;28;20022;-68
2023/12/01 03:49:49;;;;;;;113.97;50.13;;;;;;;;;;4996755;28;20076;-69
2023/12/01 03:52:15;;;;;;;101.85;46.67;;;;;;;;;;5012911;28;20030;-65
2023/12/01 03:54:40;;;;;;;105.15;49.20;;;;;;;;;;5014664;28;20038;-64
2023/12/01 03:57:06;;;;;;;103.22;48.08;;;;;;;;;;5014501;28;20030;-65
2023/12/01 03:59:31;;;;;;;108.72;49.45;;;;;;;;;;4996488;28;20033;-64
2023/12/01 04:01:57;;;;;;;118.18;49.30;;;;;;;;;;5012733;28;20026;-66
2023/12/01 04:04:22;;;;;;;104.30;46.78;;;;;;;;;;5014173;28;20044;-66
2023/12/01 04:06:47;;;;;;;106.78;47.08;;;;;;;;;;5012606;28;20026;-66
2023/12/01 04:09:13;;;;;;;88.53;41.53;;;;;;;;;;5014186;28;20029;-66
2023/12/01 04:11:38;;;;;;;85.25;40.50;;;;;;;;;;5014172;28;20025;-65
2023/12/01 04:14:04;;;;;;;86.53;40.33;;;;;;;;;;4996720;28;20042;-65
2023/12/01 04:16:30;;;;;;;99.13;42.88;;;;;;;;;;5014381;28;20041;-65
2023/12/01 04:18:55;;;;;;;113.10;47.72;;;;;;;;;;5014605;28;20030;-65
2023/12/01 04:21:21;;;;;;;108.03;45.88;;;;;;;;;;4979998;28;20042;-66
2023/12/01 04:23:46;;;;;;;93.25;41.35;;;;;;;;;;5013693;28;20117;-66
2023/12/01 04:26:12;;;;;;;122.63;57.67;;;;;;;;;;4996573;28;20080;-66
2023/12/01 04:28:38;;;;;;;144.10;70.82;;;;;;;;;;5014231;28;20030;-66
2023/12/01 04:31:05;;;;;;;117.78;61.97;;;;;;;;;;5013537;28;20036;-64
2023/12/01 04:33:33;;;;;;;99.70;52.33;;;;;;;;;;5013969;28;20109;-64
2023/12/01 04:35:59;;;;;;;95.55;52.75;;;;;;;;;;5013980;28;20121;-64
2023/12/01 04:38:24;;;;;;;84.72;45.20;;;;;;;;;;5016480;28;20080;-64
2023/12/01 04:40:50;;;;;;;67.72;35.10;;;;;;;;;;5017583;28;20038;-64
2023/12/01 04:43:17;;;;;;;65.15;34.45;;;;;;;;;;5017704;28;20033;-64
2023/12/01 04:45:43;;;;;;;67.88;35.67;;;;;;;;;;5017820;28;20030;-65
2023/12/01 04:48:09;;;;;;;61.30;33.50;;;;;;;;;;4999989;28;20033;-62
2023/12/01 04:50:38;;;;;;;59.50;32.10;;;;;;;;;;5018000;28;20038;-63
2023/12/01 04:53:03;;;;;;;60.13;32.10;;;;;;;;;;5017329;28;20464;-63
2023/12/01 04:55:29;;;;;;;69.78;36.03;;;;;;;;;;5017233;28;20036;-64
2023/12/01 04:57:56;;;;;;;74.63;38.88;;;;;;;;;;5017827;28;20041;-63
2023/12/01 05:00:22;;;;;;;74.40;39.38;;;;;;;;;;5017538;28;20068;-64
2023/12/01 05:02:49;;;;;;;74.25;39.33;;;;;;;;;;5000418;28;20080;-64
2023/12/01 05:05:15;;;;;;;77.38;41.42;;;;;;;;;;5016220;28;20049;-64
2023/12/01 05:07:41;;;;;;;70.80;39.42;;;;;;;;;;5015837;28;20026;-64
2023/12/01 05:10:08;;;;;;;65.85;38.00;;;;;;;;;;4998625;28;20088;-63
2023/12/01 05:12:34;;;;;;;70.03;38.88;;;;;;;;;;5016860;28;20049;-64
2023/12/01 05:14:59;;;;;;;70.93;39.63;;;;;;;;;;5016925;28;20507;-64
2023/12/01 05:17:25;;;;;;;70.45;39.33;;;;;;;;;;4982241;28;20350;-66
2023/12/01 05:19:50;;;;;;;65.43;38.05;;;;;;;;;;5017169;28;20072;-67
2023/12/01 05:22:16;;;;;;;67.40;38.38;;;;;;;;;;5017241;28;20419;-66
2023/12/01 05:24:41;;;;;;;64.00;37.75;;;;;;;;;;5017499;28;20034;-67
2023/12/01 05:27:08;;;;;;;69.13;37.63;;;;;;;;;;4999498;28;20029;-66
2023/12/01 05:29:35;;;;;;;62.60;35.38;;;;;;;;;;5017173;28;20115;-67
2023/12/01 05:32:04;;;;;;;64.13;35.83;;;;;;;;;;5016632;28;20030;-60
2023/12/01 05:34:29;;;;;;;67.78;36.90;;;;;;;;;;5016799;28;20029;-64
2023/12/01 05:36:54;;;;;;;68.68;37.05;;;;;;;;;;5016533;28;20038;-64
2023/12/01 05:39:20;;;;;;;68.40;36.90;;;;;;;;;;5017290;28;20026;-64
2023/12/01 05:41:45;;;;;;;52.08;29.50;;;;;;;;;;5017101;28;20096;-64
2023/12/01 05:44:10;;;;;;;52.53;28.63;;;;;;;;;;5017155;28;20041;-64
2023/12/01 05:46:36;;;;;;;64.85;32.85;;;;;;;;;;5016495;28;20036;-64
2023/12/01 05:49:02;;;;;;;73.45;35.92;;;;;;;;;;5015940;28;20025;-64
2023/12/01 05:51:28;;;;;;;77.35;37.72;;;;;;;;;;5016821;28;20034;-64
2023/12/01 05:53:54;;;;;;;79.55;40.35;;;;;;;;;;5016601;28;20084;-64
2023/12/01 05:56:20;;;;;;;81.03;39.78;;;;;;;;;;4998996;28;20072;-63
2023/12/01 05:58:45;;;;;;;73.70;39.22;;;;;;;;;;5015124;28;20054;-64
2023/12/01 06:01:11;;;;;;;66.28;37.00;;;;;;;;;;5016489;28;20046;-64
2023/12/01 06:03:36;;;;;;;63.72;34.03;;;;;;;;;;5015098;28;20403;-64
2023/12/01 06:06:02;;;;;;;62.13;34.17;;;;;;;;;;5016465;28;20025;-64
2023/12/01 06:08:27;;;;;;;60.33;32.35;;;;;;;;;;5016151;28;20113;-64
2023/12/01 06:10:53;;;;;;;59.22;33.25;;;;;;;;;;5016003;28;20019;-64
2023/12/01 06:13:19;;;;;;;60.97;33.38;;;;;;;;;;5016307;28;20380;-64
2023/12/01 06:15:44;;;;;;;56.35;32.05;;;;;;;;;;5016398;28;20053;-64
2023/12/01 06:18:10;;;;;;;57.55;32.33;;;;;;;;;;5016274;28;20034;-63
2023/12/01 06:20:37;;;;;;;62.92;34.67;;;;;;;;;;5015351;28;20034;-63
2023/12/01 06:23:05;;;;;;;72.53;39.28;;;;;;;;;;4997913;28;20038;-63
2023/12/01 06:25:32;;;;;;;75.20;39.45;;;;;;;;;;5015770;28;20029;-64
2023/12/01 06:27:58;;;;;;;74.85;38.08;;;;;;;;;;5015409;28;20022;-63
2023/12/01 06:30:25;;;;;;;70.50;37.95;;;;;;;;;;5015802;28;20018;-63
2023/12/01 06:32:50;;;;;;;70.97;37.75;;;;;;;;;;5015746;28;20468;-64
2023/12/01 06:35:17;;;;;;;73.47;37.45;;;;;;;;;;5015448;28;20026;-64
2023/12/01 06:37:43;;;;;;;60.47;33.58;;;;;;;;;;5015297;28;20034;-64
2023/12/01 06:40:12;;;;;;;64.22;34.50;;;;;;;;;;5014819;28;20014;-64
2023/12/01 06:42:41;;;;;;;63.55;35.72;;;;;;;;;;5014302;28;20061;-63
2023/12/01 06:45:08;;;;;;;66.90;35.85;;;;;;;;;;5014726;28;20030;-63
2023/12/01 06:47:33;;;;;;;67.68;36.17;;;;;;;;;;5014539;28;20057;-64
2023/12/01 06:49:58;;;;;;;70.28;37.38;;;;;;;;;;5014023;28;20419;-63
2023/12/01 06:52:24;;;;;;;65.82;36.70;;;;;;;;;;5014518;28;20083;-64
2023/12/01 06:54:51;;;;;;;71.90;37.95;;;;;;;;;;5014501;28;20022;-63
2023/12/01 06:57:17;;;;;;;69.70;37.22;;;;;;;;;;5014885;28;20038;-64
2023/12/01 06:59:42;;;;;;;75.50;41.20;;;;;;;;;;5015106;28;20037;-64
2023/12/01 07:02:07;;;;;;;81.60;44.00;;;;;;;;;;5015053;28;20064;-64
2023/12/01 07:04:33;;;;;;;82.05;44.65;;;;;;;;;;5015429;28;20041;-63
2023/12/01 07:07:00;;;;;;;80.25;44.17;;;;;;;;;;5014828;28;20121;-63
2023/12/01 07:09:29;;;;;;;79.15;44.17;;;;;;;;;;5014997;28;20468;-63
2023/12/01 07:11:54;;;;;;;70.47;38.17;;;;;;;;;;5015145;28;20022;-63
2023/12/01 07:14:23;;;;;;;74.65;40.80;;;;;;;;;;5013491;28;20491;-63
2023/12/01 07:16:49;;;;;;;75.70;40.63;;;;;;;;;;5014811;28;20088;-64
2023/12/01 07:19:16;;;;;;;72.82;40.25;;;;;;;;;;4996929;28;20029;-64
2023/12/01 07:21:44;;;;;;;72.55;38.38;;;;;;;;;;5014302;28;20120;-64
2023/12/01 07:24:09;;;;;;;69.03;37.10;;;;;;;;;;5015064;28;20034;-64
2023/12/01 07:26:35;;;;;;;60.67;34.08;;;;;;;;;;5014487;28;20469;-64
2023/12/01 07:29:01;;;;;;;65.40;34.60;;;;;;;;;;5015109;28;20453;-63
2023/12/01 07:31:27;;;;;;;61.67;32.28;;;;;;;;;;5015015;28;20021;-64
2023/12/01 07:33:52;;;;;;;60.35;31.30;;;;;;;;;;5014337;28;20388;-64
2023/12/01 07:36:20;;;;;;;53.70;29.60;;;;;;;;;;5014466;28;20033;-65
2023/12/01 07:38:46;;;;;;;45.67;26.08;;;;;;;;;;5013783;28;20033;-64
2023/12/01 07:41:13;;;;;;;45.22;26.00;;;;;;;;;;4996815;28;20049;-71
2023/12/01 07:43:40;;;;;;;44.08;25.25;;;;;;;;;;5013890;28;20066;-64
2023/12/01 07:46:06;;;;;;;47.25;27.15;;;;;;;;;;5013599;28;20112;-64
2023/12/01 07:48:32;;;;;;;59.38;32.00;;;;;;;;;;5013958;28;20057;-64
2023/12/01 07:50:58;;;;;;;69.65;35.80;;;;;;;;;;5014200;28;20119;-64
2023/12/01 07:53:24;;;;;;;68.38;35.95;;;;;;;;;;5014150;28;20485;-64
2023/12/01 07:55:50;;;;;;;65.85;34.58;;;;;;;;;;5012764;28;20092;-64
2023/12/01 07:58:16;;;;;;;69.63;37.20;;;;;;;;;;5012962;28;20038;-64
2023/12/01 08:00:41;;;;;;;68.80;35.78;;;;;;;;;;5013317;28;20037;-64
2023/12/01 08:03:07;;;;;;;71.00;37.42;;;;;;;;;;5013226;28;20049;-64
2023/12/01 08:05:36;;;;;;;72.05;37.58;;;;;;;;;;5012965;28;20520;-64
2023/12/01 08:08:03;;;;;;;71.95;38.63;;;;;;;;;;5013488;28;20053;-64
2023/12/01 08:10:28;;;;;;;75.03;39.72;;;;;;;;;;4980002;28;20022;-64
2023/12/01 08:12:56;;;;;;;75.32;38.58;;;;;;;;;;5013393;28;20431;-64
2023/12/01 08:15:22;;;;;;;76.03;38.55;;;;;;;;;;5012605;28;20559;-64
2023/12/01 08:17:48;;;;;;;79.38;40.33;;;;;;;;;;5013560;28;20353;-64
2023/12/01 08:20:16;;;;;;;76.85;40.45;;;;;;;;;;5013274;28;20037;-64
2023/12/01 08:22:46;;;;;;;79.07;42.72;;;;;;;;;;4992404;28;20420;-64
2023/12/01 08:25:12;;;;;;;79.68;44.42;;;;;;;;;;4993134;28;20026;-64
2023/12/01 08:27:39;;;;;;;74.38;39.35;;;;;;;;;;4991857;28;20030;-64
2023/12/01 08:30:05;;;;;;;83.10;45.85;;;;;;;;;;4993112;28;20545;-63
2023/12/01 08:32:30;;;;;;;86.43;44.72;;;;;;;;;;4992608;28;20114;-64
2023/12/01 08:34:55;;;;;;;76.32;43.90;;;;;;;;;;4991888;28;20038;-63
2023/12/01 08:37:21;;;;;;;86.38;47.78;;;;;;;;;;4993225;28;20428;-64
2023/12/01 08:39:46;;;;;;;82.20;47.03;;;;;;;;;;4993151;28;20031;-64
2023/12/01 08:42:12;;;;;;;84.05;49.20;;;;;;;;;;4993596;28;20041;-63
2023/12/01 08:44:37;;;;;;;90.18;48.15;;;;;;;;;;4993110;28;20035;-63
2023/12/01 08:47:03;;;;;;;85.03;47.20;;;;;;;;;;4993052;28;20035;-64
2023/12/01 08:49:29;;;;;;;86.70;47.17;;;;;;;;;;4992851;28;20031;-64
2023/12/01 08:51:55;;;;;;;86.45;47.15;;;;;;;;;;4993526;28;20465;-64
2023/12/01 08:54:23;;;;;;;81.57;45.38;;;;;;;;;;4993796;28;20433;-64
2023/12/01 08:56:49;;;;;;;68.18;39.00;;;;;;;;;;4976064;28;20385;-64
2023/12/01 08:59:14;;;;;;;144.57;75.38;;;;;;;;;;4993147;28;20034;-64
2023/12/01 09:01:40;;;;;;;82.05;46.25;;;;;;;;;;4993658;28;20030;-64
2023/12/01 09:04:06;;;;;;;62.28;34.25;;;;;;;;;;4993662;28;20432;-64
2023/12/01 09:06:32;;;;;;;72.35;39.45;;;;;;;;;;4993713;28;20081;-64
2023/12/01 09:08:57;;;;;;;51.92;30.73;;;;;;;;;;4992096;28;20481;-64
2023/12/01 09:11:22;;;;;;;37.85;23.02;;;;;;;;;;4992306;28;20527;-64
2023/12/01 09:13:48;;;;;;;29.20;18.83;;;;;;;;;;4992988;28;20381;-64
2023/12/01 09:16:15;;;;;;;29.95;17.95;;;;;;;;;;4991881;28;20030;-64
2023/12/01 09:18:43;;;;;;;31.70;19.50;;;;;;;;;;4993433;28;20449;-64
2023/12/01 09:21:08;;;;;;;52.65;30.80;;;;;;;;;;4994624;28;20108;-64
2023/12/01 09:23:34;;;;;;;59.47;35.25;;;;;;;;;;4994338;28;20465;-64
2023/12/01 09:25:59;;;;;;;77.68;46.88;;;;;;;;;;4997115;28;20031;-64
2023/12/01 09:28:24;;;;;;;109.45;66.70;;;;;;;;;;4996845;28;20034;-64
2023/12/01 09:30:50;;;;;;;119.25;68.85;;;;;;;;;;4996860;28;20018;-64
2023/12/01 09:33:16;;;;;;;58.65;36.15;;;;;;;;;;4996860;28;20030;-64
2023/12/01 09:35:48;;;;;;;50.00;29.73;;;;;;;;;;4995531;28;20018;-63
2023/12/01 09:38:13;;;;;;;52.22;30.40;;;;;;;;;;4996400;28;20034;-64
2023/12/01 09:40:41;;;;;;;58.75;36.03;;;;;;;;;;4996465;28;20026;-64
2023/12/01 09:43:07;;;;;;;65.85;38.97;;;;;;;;;;4995392;28;20547;-64
2023/12/01 09:45:33;;;;;;;80.88;47.22;;;;;;;;;;4996882;28;20058;-64
2023/12/01 09:48:01;;;;;;;77.38;45.63;;;;;;;;;;4996560;28;20037;-64
2023/12/01 09:50:27;;;;;;;74.18;45.00;;;;;;;;;;4996127;28;20029;-64
2023/12/01 09:52:52;;;;;;;74.00;44.60;;;;;;;;;;4996480;28;20030;-64
2023/12/01 09:55:18;;;;;;;71.60;43.92;;;;;;;;;;4996829;28;20045;-64
2023/12/01 09:57:44;;;;;;;75.95;45.10;;;;;;;;;;4996928;28;20077;-64
2023/12/01 10:00:11;;;;;;;72.57;42.88;;;;;;;;;;4995204;28;20037;-64
2023/12/01 10:02:38;;;;;;;77.15;44.30;;;;;;;;;;4996321;28;20061;-64
2023/12/01 10:05:04;;;;;;;77.57;45.13;;;;;;;;;;4995987;28;20154;-64
2023/12/01 10:07:30;;;;;;;77.30;46.00;;;;;;;;;;4996004;28;20113;-63
2023/12/01 10:09:55;;;;;;;81.05;45.42;;;;;;;;;;4996193;28;20030;-64
2023/12/01 10:12:20;;;;;;;84.32;50.08;;;;;;;;;;4996111;28;20476;-64
2023/12/01 10:14:49;;;;;;;60.78;35.83;;;;;;;;;;4994848;28;20065;-64
2023/12/01 10:17:14;;;;;;;60.42;33.58;;;;;;;;;;4995905;28;20408;-64
2023/12/01 10:19:44;;;;;;;53.70;29.70;;;;;;;;;;4996089;28;20041;-64
2023/12/01 10:22:11;;;;;;;46.70;24.23;;;;;;;;;;4993992;28;20552;-64
2023/12/01 10:24:36;;;;;;;58.13;31.05;;;;;;;;;;4995999;28;20293;-64
2023/12/01 10:27:05;;;;;;;38.40;23.25;;;;;;;;;;4995972;28;20495;-64
2023/12/01 10:29:34;;;;;;;41.72;26.13;;;;;;;;;;4995024;28;20073;-64
2023/12/01 10:32:07;;;;;;;35.77;21.10;;;;;;;;;;4995354;28;20116;-63
2023/12/01 10:34:33;;;;;;;33.92;20.58;;;;;;;;;;4994131;28;20031;-63
2023/12/01 10:36:59;;;;;;;33.63;19.42;;;;;;;;;;4994765;28;20034;-64
2023/12/01 10:39:25;;;;;;;28.25;17.98;;;;;;;;;;4995660;28;20023;-63
2023/12/01 10:41:53;;;;;;;30.65;19.20;;;;;;;;;;4994331;28;20030;-64
2023/12/01 10:44:21;;;;;;;23.73;16.35;;;;;;;;;;4995464;28;20088;-63
2023/12/01 10:46:47;;;;;;;28.05;16.48;;;;;;;;;;4994389;28;20444;-64
2023/12/01 10:49:17;;;;;;;30.50;18.85;;;;;;;;;;4994329;28;20036;-63
2023/12/01 10:51:42;;;;;;;;;;;;;;;;;;4994718;28;20065;-63
2023/12/01 10:54:11;;;;;;;37.50;23.43;;;;;;;;;;4994486;28;19949;-63
2023/12/01 10:56:57;;;;;;;34.67;19.13;;;;;;;;;;4992589;28;20300;-64
2023/12/01 10:59:23;;;;;;;31.65;18.73;;;;;;;;;;4993516;28;20077;-64
2023/12/01 11:01:52;;;;;;;33.85;21.10;;;;;;;;;;4976819;28;20069;-63
2023/12/01 11:04:23;;;;;;;56.20;34.83;;;;;;;;;;4993935;28;20085;-64
2023/12/01 11:06:59;;;;;;;78.22;49.30;;;;;;;;;;4994293;28;20026;-64
2023/12/01 11:09:32;;;;;;;67.88;45.28;;;;;;;;;;4994145;28;20413;-64
2023/12/01 11:12:02;;;;;;;38.70;25.75;;;;;;;;;;4977127;28;20030;-64
2023/12/01 11:14:30;;;;;;;30.63;20.98;;;;;;;;;;4994289;28;20030;-63
2023/12/01 11:16:55;;;;;;;26.98;16.92;;;;;;;;;;4994211;28;20531;-64
2023/12/01 11:19:22;;;;;;;27.90;17.63;;;;;;;;;;4993837;28;20066;-63
2023/12/01 11:21:57;;;;;;;28.05;19.98;;;;;;;;;;4992774;28;20042;-63
2023/12/01 11:24:26;;;;;;;43.45;30.05;;;;;;;;;;4976527;28;20034;-63
2023/12/01 11:26:52;;;;;;;37.88;25.70;;;;;;;;;;4992598;28;20047;-64
2023/12/01 11:29:19;;;;;;;23.75;14.82;;;;;;;;;;4994110;28;20035;-64
2023/12/01 11:31:51;;;;;;;32.20;19.30;;;;;;;;;;4993883;28;20416;-64
2023/12/01 11:34:19;;;;;;;34.35;19.42;;;;;;;;;;4976085;28;20469;-64
2023/12/01 11:36:48;;;;;;;31.45;20.95;;;;;;;;;;4992699;28;20030;-64
2023/12/01 11:39:17;;;;;;;24.17;15.37;;;;;;;;;;4993564;28;20030;-63
2023/12/01 11:41:47;;;;;;;27.27;16.58;;;;;;;;;;4976324;28;20277;-64
2023/12/01 11:44:29;;;;;;;26.13;16.15;;;;;;;;;;4993592;28;20093;-63
2023/12/01 11:46:56;;;;;;;24.58;15.95;;;;;;;;;;4993207;28;20030;-64
2023/12/01 11:49:31;;;;;;;26.90;18.00;;;;;;;;;;4993572;28;20127;-64
2023/12/01 11:52:00;;;;;;;32.05;20.35;;;;;;;;;;4993573;28;20073;-64
2023/12/01 11:54:26;;;;;;;30.67;18.23;;;;;;;;;;4993303;28;20046;-64
2023/12/01 11:56:57;;;;;;;50.55;29.15;;;;;;;;;;4993484;28;20082;-63
2023/12/01 11:59:24;;;;;;;31.92;17.85;;;;;;;;;;4993444;28;20038;-63
2023/12/01 12:01:51;;;;;;;32.75;18.98;;;;;;;;;;4975605;28;20461;-64
2023/12/01 12:04:17;;;;;;;30.63;17.40;;;;;;;;;;4993106;28;20029;-64
2023/12/01 12:06:44;;;;;;;39.47;24.75;;;;;;;;;;4993417;28;20105;-64
2023/12/01 12:09:10;;;;;;;45.20;26.88;;;;;;;;;;4993036;28;20027;-64
2023/12/01 12:11:36;;;;;;;92.18;50.78;;;;;;;;;;4993226;28;20040;-64
2023/12/01 12:14:02;;;;;;;47.30;27.15;;;;;;;;;;4992943;28;20034;-64
2023/12/01 12:16:28;;;;;;;31.67;19.92;;;;;;;;;;4983825;28;20764;-64
2023/12/01 12:18:56;;;;;;;23.40;15.40;;;;;;;;;;4992086;28;20034;-64
2023/12/01 12:21:23;;;;;;;105.57;64.28;;;;;;;;;;4990148;28;20042;-63
2023/12/01 12:23:49;;;;;;;138.65;108.47;;;;;;;;;;4988583;28;20038;-64
2023/12/01 12:26:18;;;;;;;170.25;116.18;;;;;;;;;;4988993;28;20030;-62
2023/12/01 12:28:52;;;;;;;211.40;146.82;;;;;;;;;;4989328;28;20038;-62
2023/12/01 12:31:18;;;;;;;193.90;133.23;;;;;;;;;;4989141;28;20110;-62
2023/12/01 12:33:43;;;;;;;144.02;105.40;;;;;;;;;;4989221;28;20117;-62
2023/12/01 12:36:12;;;;;;;240.77;204.90;;;;;;;;;;4989227;28;20034;-62
2023/12/01 12:38:37;;;;;;;70.15;49.63;;;;;;;;;;4988272;28;20049;-62
2023/12/01 12:41:04;;;;;;;103.07;51.70;;;;;;;;;;4988779;28;20038;-62
2023/12/01 12:43:34;;;;;;;39.63;22.88;;;;;;;;;;4989165;28;20117;-62
2023/12/01 12:46:03;;;;;;;85.93;42.00;;;;;;;;;;4989229;28;20070;-62
2023/12/01 12:48:30;;;;;;;40.25;27.40;;;;;;;;;;4971659;28;20473;-62
2023/12/01 12:50:55;;;;;;;113.18;64.78;;;;;;;;;;4989176;28;20121;-62
2023/12/01 12:53:21;;;;;;;62.38;38.70;;;;;;;;;;4989315;28;20443;-63
2023/12/01 12:55:46;;;;;;;241.00;165.50;;;;;;;;;;4988911;28;20826;-63
2023/12/01 12:58:11;;;;;;;71.35;40.45;;;;;;;;;;4989282;28;20030;-63
2023/12/01 13:00:37;;;;;;;68.07;36.92;;;;;;;;;;4992037;28;20425;-63
2023/12/01 13:03:03;;;;;;;47.70;27.60;;;;;;;;;;4992826;28;20105;-62
2023/12/01 13:05:30;;;;;;;75.28;40.13;;;;;;;;;;4993071;28;20084;-65
2023/12/01 13:07:55;;;;;;;51.40;30.85;;;;;;;;;;4993282;28;20385;-65
2023/12/01 13:10:20;;;;;;;82.88;47.83;;;;;;;;;;4993004;28;20131;-65
2023/12/01 13:12:46;;;;;;;62.50;32.53;;;;;;;;;;4991406;28;20034;-65
2023/12/01 13:15:12;;;;;;;331.55;158.63;;;;;;;;;;5007503;28;20038;-65
2023/12/01 13:17:37;;;;;;;156.45;65.95;;;;;;;;;;4992537;28;20061;-65
2023/12/01 13:20:04;;;;;;;138.93;62.67;;;;;;;;;;4992551;28;20062;-65
2023/12/01 13:22:30;;;;;;;105.28;46.70;;;;;;;;;;5004434;28;20046;-65
2023/12/01 13:24:56;;;;;;;109.28;51.08;;;;;;;;;;5007241;28;20042;-64
2023/12/01 13:27:21;;;;;;;129.98;57.08;;;;;;;;;;4992331;28;20076;-64
2023/12/01 13:29:46;;;;;;;130.05;68.35;;;;;;;;;;4994248;28;20034;-64
2023/12/01 13:32:12;;;;;;;114.18;61.72;;;;;;;;;;4993665;28;20531;-64
2023/12/01 13:34:37;;;;;;;64.88;36.22;;;;;;;;;;4992838;28;20108;-64
2023/12/01 13:37:03;;;;;;;40.63;23.13;;;;;;;;;;4990631;28;20050;-64
2023/12/01 13:39:28;;;;;;;40.42;21.60;;;;;;;;;;4992499;28;20445;-65
2023/12/01 13:41:53;;;;;;;25.70;15.50;;;;;;;;;;4992178;28;20057;-65
2023/12/01 13:44:20;;;;;;;28.70;17.25;;;;;;;;;;4990749;28;20034;-65
2023/12/01 13:46:45;;;;;;;80.38;63.22;;;;;;;;;;4991923;28;20038;-64
2023/12/01 13:49:11;;;;;;;91.57;52.08;;;;;;;;;;4991968;28;20014;-65
2023/12/01 13:51:37;;;;;;;184.40;91.82;;;;;;;;;;4992412;28;20037;-65
2023/12/01 13:54:03;;;;;;;97.15;53.22;;;;;;;;;;4992181;28;20038;-65
2023/12/01 13:56:28;;;;;;;135.35;79.25;;;;;;;;;;4990174;28;20041;-65
2023/12/01 13:58:53;;;;;;;81.68;48.05;;;;;;;;;;4991771;28;20077;-65
2023/12/01 14:01:19;;;;;;;103.97;56.15;;;;;;;;;;4991594;28;20062;-65
2023/12/01 14:03:44;;;;;;;59.13;33.42;;;;;;;;;;4990199;28;20038;-65
2023/12/01 14:06:10;;;;;;;62.65;33.10;;;;;;;;;;4991345;28;20049;-65
2023/12/01 14:08:35;;;;;;;124.75;60.05;;;;;;;;;;4991516;28;20031;-66